sensor_id;sensor_type;location;lat;lon;timestamp;P1;durP1;ratioP1;P2;durP2;ratioP2
55409;SDS011;41279;43.546;16.426;2022-11-18T00:01:07;5.22;;;3.05;;
55409;SDS011;41279;43.546;16.426;2022-11-18T00:03:34;7.43;;;3.17;;
55409;SDS011;41279;43.546;16.426;2022-11-18T00:06:00;8.00;;;2.97;;
55409;SDS011;41279;43.546;16.426;2022-11-18T00:08:25;8.02;;;3.55;;
55409;SDS011;41279;43.546;16.426;2022-11-18T00:10:51;10.95;;;3.42;;
55409;SDS011;41279;43.546;16.426;2022-11-18T00:13:17;9.07;;;3.22;;
55409;SDS011;41279;43.546;16.426;2022-11-18T00:18:34;8.23;;;3.45;;
55409;SDS011;41279;43.546;16.426;2022-11-18T00:21:04;7.70;;;3.53;;
55409;SDS011;41279;43.546;16.426;2022-11-18T00:23:30;6.32;;;3.35;;
55409;SDS011;41279;43.546;16.426;2022-11-18T00:26:00;7.03;;;3.33;;
55409;SDS011;41279;43.546;16.426;2022-11-18T00:30:59;8.40;;;3.80;;
55409;SDS011;41279;43.546;16.426;2022-11-18T00:33:29;9.77;;;3.63;;
55409;SDS011;41279;43.546;16.426;2022-11-18T00:35:55;7.00;;;3.15;;
55409;SDS011;41279;43.546;16.426;2022-11-18T00:38:20;6.45;;;3.47;;
55409;SDS011;41279;43.546;16.426;2022-11-18T00:40:46;10.98;;;3.20;;
55409;SDS011;41279;43.546;16.426;2022-11-18T00:43:11;7.70;;;3.25;;
55409;SDS011;41279;43.546;16.426;2022-11-18T00:45:36;10.00;;;3.63;;
55409;SDS011;41279;43.546;16.426;2022-11-18T00:48:02;12.00;;;3.42;;
55409;SDS011;41279;43.546;16.426;2022-11-18T00:50:27;9.93;;;3.78;;
55409;SDS011;41279;43.546;16.426;2022-11-18T00:52:53;12.98;;;3.50;;
55409;SDS011;41279;43.546;16.426;2022-11-18T00:55:18;6.93;;;3.22;;
55409;SDS011;41279;43.546;16.426;2022-11-18T00:57:50;8.65;;;3.42;;
55409;SDS011;41279;43.546;16.426;2022-11-18T01:00:15;5.78;;;2.83;;
55409;SDS011;41279;43.546;16.426;2022-11-18T01:02:41;8.52;;;2.75;;
55409;SDS011;41279;43.546;16.426;2022-11-18T01:05:07;7.20;;;2.95;;
55409;SDS011;41279;43.546;16.426;2022-11-18T01:07:32;7.38;;;2.97;;
55409;SDS011;41279;43.546;16.426;2022-11-18T01:09:58;7.93;;;2.85;;
55409;SDS011;41279;43.546;16.426;2022-11-18T01:12:23;6.55;;;3.13;;
55409;SDS011;41279;43.546;16.426;2022-11-18T01:15:07;6.90;;;3.00;;
55409;SDS011;41279;43.546;16.426;2022-11-18T01:17:32;7.60;;;3.35;;
55409;SDS011;41279;43.546;16.426;2022-11-18T01:19:58;6.32;;;3.28;;
55409;SDS011;41279;43.546;16.426;2022-11-18T01:22:24;10.48;;;3.17;;
55409;SDS011;41279;43.546;16.426;2022-11-18T01:24:49;7.30;;;3.85;;
55409;SDS011;41279;43.546;16.426;2022-11-18T01:27:15;9.60;;;3.22;;
55409;SDS011;41279;43.546;16.426;2022-11-18T01:29:40;8.43;;;3.30;;
55409;SDS011;41279;43.546;16.426;2022-11-18T01:32:05;6.68;;;3.40;;
55409;SDS011;41279;43.546;16.426;2022-11-18T01:34:31;9.90;;;3.33;;
55409;SDS011;41279;43.546;16.426;2022-11-18T01:36:56;8.52;;;3.22;;
55409;SDS011;41279;43.546;16.426;2022-11-18T01:39:22;8.52;;;3.42;;
55409;SDS011;41279;43.546;16.426;2022-11-18T01:41:48;10.02;;;4.30;;
55409;SDS011;41279;43.546;16.426;2022-11-18T01:47:16;8.25;;;4.05;;
55409;SDS011;41279;43.546;16.426;2022-11-18T01:49:41;7.80;;;4.47;;
55409;SDS011;41279;43.546;16.426;2022-11-18T01:52:07;8.75;;;4.13;;
55409;SDS011;41279;43.546;16.426;2022-11-18T01:54:34;7.55;;;3.78;;
55409;SDS011;41279;43.546;16.426;2022-11-18T01:57:04;9.25;;;4.05;;
55409;SDS011;41279;43.546;16.426;2022-11-18T01:59:35;9.18;;;3.45;;
55409;SDS011;41279;43.546;16.426;2022-11-18T02:02:04;10.43;;;3.92;;
55409;SDS011;41279;43.546;16.426;2022-11-18T02:04:34;7.75;;;3.67;;
55409;SDS011;41279;43.546;16.426;2022-11-18T02:07:01;7.43;;;4.13;;
55409;SDS011;41279;43.546;16.426;2022-11-18T02:09:26;7.43;;;3.50;;
55409;SDS011;41279;43.546;16.426;2022-11-18T02:11:52;7.97;;;3.47;;
55409;SDS011;41279;43.546;16.426;2022-11-18T02:39:38;8.43;;;3.00;;
55409;SDS011;41279;43.546;16.426;2022-11-18T02:42:25;8.43;;;3.08;;
55409;SDS011;41279;43.546;16.426;2022-11-18T02:44:58;7.18;;;2.70;;
55409;SDS011;41279;43.546;16.426;2022-11-18T02:47:29;5.13;;;2.80;;
55409;SDS011;41279;43.546;16.426;2022-11-18T02:49:57;7.15;;;2.80;;
55409;SDS011;41279;43.546;16.426;2022-11-18T02:52:26;7.57;;;2.72;;
55409;SDS011;41279;43.546;16.426;2022-11-18T02:54:52;9.77;;;3.30;;
55409;SDS011;41279;43.546;16.426;2022-11-18T02:57:19;6.70;;;2.85;;
55409;SDS011;41279;43.546;16.426;2022-11-18T02:59:46;7.93;;;3.15;;
55409;SDS011;41279;43.546;16.426;2022-11-18T03:02:16;6.90;;;3.25;;
55409;SDS011;41279;43.546;16.426;2022-11-18T03:04:44;6.03;;;3.10;;
55409;SDS011;41279;43.546;16.426;2022-11-18T03:09:47;8.18;;;2.95;;
55409;SDS011;41279;43.546;16.426;2022-11-18T03:18:11;7.65;;;2.75;;
55409;SDS011;41279;43.546;16.426;2022-11-18T03:20:41;5.68;;;2.97;;
55409;SDS011;41279;43.546;16.426;2022-11-18T03:25:43;4.72;;;2.47;;
55409;SDS011;41279;43.546;16.426;2022-11-18T03:28:16;5.43;;;2.47;;
55409;SDS011;41279;43.546;16.426;2022-11-18T03:30:58;8.25;;;2.60;;
55409;SDS011;41279;43.546;16.426;2022-11-18T03:33:35;6.55;;;3.00;;
55409;SDS011;41279;43.546;16.426;2022-11-18T03:36:06;5.57;;;2.65;;
55409;SDS011;41279;43.546;16.426;2022-11-18T03:38:36;5.45;;;2.67;;
55409;SDS011;41279;43.546;16.426;2022-11-18T03:41:07;4.45;;;2.47;;
55409;SDS011;41279;43.546;16.426;2022-11-18T03:44:19;7.80;;;3.05;;
55409;SDS011;41279;43.546;16.426;2022-11-18T03:49:11;5.72;;;2.30;;
55409;SDS011;41279;43.546;16.426;2022-11-18T03:51:50;5.47;;;2.65;;
55409;SDS011;41279;43.546;16.426;2022-11-18T03:54:21;6.85;;;3.00;;
55409;SDS011;41279;43.546;16.426;2022-11-18T03:56:56;8.45;;;2.80;;
55409;SDS011;41279;43.546;16.426;2022-11-18T03:59:28;7.90;;;3.00;;
55409;SDS011;41279;43.546;16.426;2022-11-18T04:02:03;5.78;;;2.40;;
55409;SDS011;41279;43.546;16.426;2022-11-18T04:04:30;7.85;;;3.22;;
55409;SDS011;41279;43.546;16.426;2022-11-18T04:09:28;5.80;;;2.35;;
55409;SDS011;41279;43.546;16.426;2022-11-18T04:12:01;6.65;;;3.00;;
55409;SDS011;41279;43.546;16.426;2022-11-18T04:14:32;6.57;;;3.08;;
55409;SDS011;41279;43.546;16.426;2022-11-18T04:17:03;5.63;;;2.47;;
55409;SDS011;41279;43.546;16.426;2022-11-18T04:19:32;5.82;;;2.92;;
55409;SDS011;41279;43.546;16.426;2022-11-18T04:21:58;8.15;;;2.90;;
55409;SDS011;41279;43.546;16.426;2022-11-18T04:24:23;5.22;;;3.00;;
55409;SDS011;41279;43.546;16.426;2022-11-18T04:26:48;7.45;;;2.90;;
55409;SDS011;41279;43.546;16.426;2022-11-18T04:29:14;7.00;;;2.60;;
55409;SDS011;41279;43.546;16.426;2022-11-18T04:31:39;6.57;;;2.72;;
55409;SDS011;41279;43.546;16.426;2022-11-18T04:34:04;9.32;;;2.80;;
55409;SDS011;41279;43.546;16.426;2022-11-18T04:36:30;6.25;;;2.42;;
55409;SDS011;41279;43.546;16.426;2022-11-18T04:38:55;6.40;;;3.00;;
55409;SDS011;41279;43.546;16.426;2022-11-18T04:41:20;6.25;;;2.72;;
55409;SDS011;41279;43.546;16.426;2022-11-18T04:44:06;6.35;;;2.80;;
55409;SDS011;41279;43.546;16.426;2022-11-18T04:46:36;8.40;;;2.97;;
55409;SDS011;41279;43.546;16.426;2022-11-18T04:49:03;6.95;;;3.17;;
55409;SDS011;41279;43.546;16.426;2022-11-18T04:51:28;4.95;;;2.60;;
55409;SDS011;41279;43.546;16.426;2022-11-18T04:53:53;6.72;;;2.70;;
55409;SDS011;41279;43.546;16.426;2022-11-18T04:56:19;8.32;;;3.53;;
55409;SDS011;41279;43.546;16.426;2022-11-18T04:58:44;5.28;;;2.65;;
55409;SDS011;41279;43.546;16.426;2022-11-18T05:01:09;5.93;;;2.83;;
55409;SDS011;41279;43.546;16.426;2022-11-18T05:03:35;7.40;;;2.80;;
55409;SDS011;41279;43.546;16.426;2022-11-18T05:06:00;6.10;;;3.03;;
55409;SDS011;41279;43.546;16.426;2022-11-18T05:08:26;6.15;;;3.35;;
55409;SDS011;41279;43.546;16.426;2022-11-18T05:10:51;7.60;;;3.67;;
55409;SDS011;41279;43.546;16.426;2022-11-18T05:13:36;7.10;;;3.35;;
55409;SDS011;41279;43.546;16.426;2022-11-18T05:16:02;8.60;;;3.40;;
55409;SDS011;41279;43.546;16.426;2022-11-18T05:18:27;8.15;;;3.03;;
55409;SDS011;41279;43.546;16.426;2022-11-18T05:20:52;6.43;;;3.20;;
55409;SDS011;41279;43.546;16.426;2022-11-18T05:23:18;5.93;;;2.63;;
55409;SDS011;41279;43.546;16.426;2022-11-18T05:25:43;12.50;;;3.75;;
55409;SDS011;41279;43.546;16.426;2022-11-18T05:28:08;8.13;;;3.35;;
55409;SDS011;41279;43.546;16.426;2022-11-18T05:30:34;6.90;;;3.58;;
55409;SDS011;41279;43.546;16.426;2022-11-18T05:32:59;7.38;;;3.00;;
55409;SDS011;41279;43.546;16.426;2022-11-18T05:35:24;6.18;;;3.50;;
55409;SDS011;41279;43.546;16.426;2022-11-18T05:37:50;6.57;;;3.40;;
55409;SDS011;41279;43.546;16.426;2022-11-18T05:40:15;8.13;;;3.50;;
55409;SDS011;41279;43.546;16.426;2022-11-18T05:42:41;9.95;;;4.05;;
55409;SDS011;41279;43.546;16.426;2022-11-18T05:45:25;12.15;;;4.18;;
55409;SDS011;41279;43.546;16.426;2022-11-18T05:47:50;12.88;;;4.35;;
55409;SDS011;41279;43.546;16.426;2022-11-18T05:50:24;16.52;;;4.30;;
55409;SDS011;41279;43.546;16.426;2022-11-18T05:52:50;12.55;;;3.72;;
55409;SDS011;41279;43.546;16.426;2022-11-18T05:55:16;20.33;;;4.20;;
55409;SDS011;41279;43.546;16.426;2022-11-18T05:57:44;6.07;;;3.00;;
55409;SDS011;41279;43.546;16.426;2022-11-18T06:00:10;13.07;;;3.67;;
55409;SDS011;41279;43.546;16.426;2022-11-18T06:02:36;10.73;;;4.60;;
55409;SDS011;41279;43.546;16.426;2022-11-18T06:05:02;12.68;;;4.22;;
55409;SDS011;41279;43.546;16.426;2022-11-18T06:07:41;11.50;;;3.90;;
55409;SDS011;41279;43.546;16.426;2022-11-18T06:10:09;14.82;;;4.03;;
55409;SDS011;41279;43.546;16.426;2022-11-18T06:12:40;8.95;;;4.00;;
55409;SDS011;41279;43.546;16.426;2022-11-18T06:15:10;16.67;;;4.60;;
55409;SDS011;41279;43.546;16.426;2022-11-18T06:20:18;10.23;;;5.15;;
55409;SDS011;41279;43.546;16.426;2022-11-18T06:22:46;17.25;;;4.40;;
55409;SDS011;41279;43.546;16.426;2022-11-18T06:25:13;11.40;;;4.25;;
55409;SDS011;41279;43.546;16.426;2022-11-18T06:27:39;10.88;;;4.30;;
55409;SDS011;41279;43.546;16.426;2022-11-18T06:30:05;17.90;;;4.60;;
55409;SDS011;41279;43.546;16.426;2022-11-18T06:32:31;12.82;;;5.15;;
55409;SDS011;41279;43.546;16.426;2022-11-18T06:34:57;13.23;;;4.68;;
55409;SDS011;41279;43.546;16.426;2022-11-18T06:37:22;8.38;;;4.47;;
55409;SDS011;41279;43.546;16.426;2022-11-18T06:39:47;12.10;;;4.75;;
55409;SDS011;41279;43.546;16.426;2022-11-18T06:42:13;13.25;;;4.53;;
55409;SDS011;41279;43.546;16.426;2022-11-18T06:44:58;15.77;;;4.63;;
55409;SDS011;41279;43.546;16.426;2022-11-18T06:47:23;12.18;;;4.13;;
55409;SDS011;41279;43.546;16.426;2022-11-18T06:49:49;12.65;;;4.78;;
55409;SDS011;41279;43.546;16.426;2022-11-18T06:52:14;15.15;;;4.30;;
55409;SDS011;41279;43.546;16.426;2022-11-18T06:54:39;14.70;;;4.93;;
55409;SDS011;41279;43.546;16.426;2022-11-18T06:57:11;9.98;;;4.13;;
55409;SDS011;41279;43.546;16.426;2022-11-18T06:59:36;18.50;;;4.45;;
55409;SDS011;41279;43.546;16.426;2022-11-18T07:02:09;11.15;;;4.30;;
55409;SDS011;41279;43.546;16.426;2022-11-18T07:04:41;9.55;;;4.28;;
55409;SDS011;41279;43.546;16.426;2022-11-18T07:07:13;11.88;;;4.80;;
55409;SDS011;41279;43.546;16.426;2022-11-18T07:09:38;10.18;;;3.83;;
55409;SDS011;41279;43.546;16.426;2022-11-18T07:12:04;10.82;;;4.15;;
55409;SDS011;41279;43.546;16.426;2022-11-18T07:14:30;14.95;;;4.40;;
55409;SDS011;41279;43.546;16.426;2022-11-18T07:16:55;13.65;;;4.20;;
55409;SDS011;41279;43.546;16.426;2022-11-18T07:19:21;11.50;;;3.90;;
55409;SDS011;41279;43.546;16.426;2022-11-18T07:21:46;9.90;;;3.95;;
55409;SDS011;41279;43.546;16.426;2022-11-18T07:24:12;10.52;;;4.10;;
55409;SDS011;41279;43.546;16.426;2022-11-18T07:26:38;9.98;;;4.20;;
55409;SDS011;41279;43.546;16.426;2022-11-18T07:29:04;7.30;;;3.60;;
55409;SDS011;41279;43.546;16.426;2022-11-18T07:31:30;10.27;;;4.20;;
55409;SDS011;41279;43.546;16.426;2022-11-18T07:33:56;9.35;;;3.70;;
55409;SDS011;41279;43.546;16.426;2022-11-18T07:36:22;12.85;;;3.90;;
55409;SDS011;41279;43.546;16.426;2022-11-18T07:38:49;8.88;;;4.22;;
55409;SDS011;41279;43.546;16.426;2022-11-18T07:41:22;9.05;;;3.95;;
55409;SDS011;41279;43.546;16.426;2022-11-18T07:43:49;10.48;;;3.75;;
55409;SDS011;41279;43.546;16.426;2022-11-18T07:48:44;6.55;;;3.20;;
55409;SDS011;41279;43.546;16.426;2022-11-18T07:51:10;9.77;;;3.95;;
55409;SDS011;41279;43.546;16.426;2022-11-18T07:53:37;7.80;;;3.50;;
55409;SDS011;41279;43.546;16.426;2022-11-18T07:56:03;6.53;;;2.92;;
55409;SDS011;41279;43.546;16.426;2022-11-18T07:58:29;13.93;;;3.75;;
55409;SDS011;41279;43.546;16.426;2022-11-18T08:00:55;6.35;;;3.40;;
55409;SDS011;41279;43.546;16.426;2022-11-18T08:03:24;8.63;;;3.78;;
55409;SDS011;41279;43.546;16.426;2022-11-18T08:05:50;8.10;;;3.60;;
55409;SDS011;41279;43.546;16.426;2022-11-18T08:08:16;9.13;;;3.33;;
55409;SDS011;41279;43.546;16.426;2022-11-18T08:10:41;9.32;;;3.40;;
55409;SDS011;41279;43.546;16.426;2022-11-18T08:13:06;8.48;;;3.38;;
55409;SDS011;41279;43.546;16.426;2022-11-18T08:15:31;7.35;;;3.50;;
55409;SDS011;41279;43.546;16.426;2022-11-18T08:17:57;6.85;;;3.15;;
55409;SDS011;41279;43.546;16.426;2022-11-18T08:20:22;9.63;;;3.63;;
55409;SDS011;41279;43.546;16.426;2022-11-18T08:22:51;11.57;;;3.75;;
55409;SDS011;41279;43.546;16.426;2022-11-18T08:25:16;9.88;;;3.70;;
55409;SDS011;41279;43.546;16.426;2022-11-18T08:27:42;9.60;;;3.85;;
55409;SDS011;41279;43.546;16.426;2022-11-18T08:30:07;10.02;;;4.22;;
55409;SDS011;41279;43.546;16.426;2022-11-18T08:32:33;7.07;;;3.35;;
55409;SDS011;41279;43.546;16.426;2022-11-18T08:34:59;11.32;;;4.03;;
55409;SDS011;41279;43.546;16.426;2022-11-18T08:37:24;10.55;;;3.92;;
55409;SDS011;41279;43.546;16.426;2022-11-18T08:39:49;11.10;;;4.28;;
55409;SDS011;41279;43.546;16.426;2022-11-18T08:42:15;8.52;;;3.90;;
55409;SDS011;41279;43.546;16.426;2022-11-18T08:44:40;16.30;;;4.05;;
55409;SDS011;41279;43.546;16.426;2022-11-18T08:47:06;9.27;;;3.47;;
55409;SDS011;41279;43.546;16.426;2022-11-18T08:49:31;7.72;;;3.40;;
55409;SDS011;41279;43.546;16.426;2022-11-18T08:51:56;12.65;;;3.90;;
55409;SDS011;41279;43.546;16.426;2022-11-18T08:54:21;11.13;;;3.97;;
55409;SDS011;41279;43.546;16.426;2022-11-18T08:56:47;8.38;;;3.22;;
55409;SDS011;41279;43.546;16.426;2022-11-18T08:59:14;11.05;;;3.30;;
55409;SDS011;41279;43.546;16.426;2022-11-18T09:01:40;13.52;;;3.53;;
55409;SDS011;41279;43.546;16.426;2022-11-18T09:04:07;9.70;;;3.63;;
55409;SDS011;41279;43.546;16.426;2022-11-18T09:06:33;16.75;;;3.55;;
55409;SDS011;41279;43.546;16.426;2022-11-18T09:08:58;12.73;;;3.55;;
55409;SDS011;41279;43.546;16.426;2022-11-18T09:11:24;12.55;;;2.85;;
55409;SDS011;41279;43.546;16.426;2022-11-18T09:13:51;5.95;;;3.17;;
55409;SDS011;41279;43.546;16.426;2022-11-18T09:16:22;9.60;;;2.95;;
55409;SDS011;41279;43.546;16.426;2022-11-18T09:18:49;8.25;;;3.03;;
55409;SDS011;41279;43.546;16.426;2022-11-18T09:21:15;7.35;;;2.95;;
55409;SDS011;41279;43.546;16.426;2022-11-18T09:23:41;7.00;;;2.80;;
55409;SDS011;41279;43.546;16.426;2022-11-18T09:26:08;7.45;;;3.20;;
55409;SDS011;41279;43.546;16.426;2022-11-18T09:28:36;6.28;;;2.80;;
55409;SDS011;41279;43.546;16.426;2022-11-18T09:31:03;7.32;;;2.95;;
55409;SDS011;41279;43.546;16.426;2022-11-18T09:33:29;8.90;;;2.72;;
55409;SDS011;41279;43.546;16.426;2022-11-18T09:35:54;9.13;;;3.15;;
55409;SDS011;41279;43.546;16.426;2022-11-18T09:38:20;8.65;;;3.00;;
55409;SDS011;41279;43.546;16.426;2022-11-18T09:43:27;6.30;;;2.60;;
55409;SDS011;41279;43.546;16.426;2022-11-18T09:45:55;7.05;;;2.90;;
55409;SDS011;41279;43.546;16.426;2022-11-18T09:48:26;12.65;;;3.20;;
55409;SDS011;41279;43.546;16.426;2022-11-18T09:51:12;9.00;;;3.45;;
55409;SDS011;41279;43.546;16.426;2022-11-18T09:53:38;10.88;;;3.00;;
55409;SDS011;41279;43.546;16.426;2022-11-18T09:56:14;6.65;;;2.95;;
55409;SDS011;41279;43.546;16.426;2022-11-18T09:58:40;11.80;;;3.50;;
55409;SDS011;41279;43.546;16.426;2022-11-18T10:01:11;9.00;;;3.72;;
55409;SDS011;41279;43.546;16.426;2022-11-18T10:03:39;7.18;;;2.80;;
55409;SDS011;41279;43.546;16.426;2022-11-18T10:08:42;9.65;;;3.30;;
55409;SDS011;41279;43.546;16.426;2022-11-18T10:11:17;9.23;;;3.20;;
55409;SDS011;41279;43.546;16.426;2022-11-18T10:13:57;9.60;;;3.35;;
55409;SDS011;41279;43.546;16.426;2022-11-18T10:19:43;10.82;;;4.00;;
55409;SDS011;41279;43.546;16.426;2022-11-18T10:24:55;11.60;;;4.10;;
55409;SDS011;41279;43.546;16.426;2022-11-18T10:27:26;8.27;;;3.20;;
55409;SDS011;41279;43.546;16.426;2022-11-18T10:29:59;10.07;;;3.10;;
55409;SDS011;41279;43.546;16.426;2022-11-18T10:32:25;9.15;;;3.30;;
55409;SDS011;41279;43.546;16.426;2022-11-18T10:34:55;7.18;;;3.28;;
55409;SDS011;41279;43.546;16.426;2022-11-18T10:37:23;5.95;;;3.28;;
55409;SDS011;41279;43.546;16.426;2022-11-18T10:39:53;9.73;;;3.08;;
55409;SDS011;41279;43.546;16.426;2022-11-18T10:44:54;8.88;;;3.40;;
55409;SDS011;41279;43.546;16.426;2022-11-18T10:49:52;10.55;;;3.67;;
55409;SDS011;41279;43.546;16.426;2022-11-18T10:52:22;9.88;;;4.20;;
55409;SDS011;41279;43.546;16.426;2022-11-18T10:57:41;9.57;;;3.13;;
55409;SDS011;41279;43.546;16.426;2022-11-18T11:00:50;9.00;;;3.55;;
55409;SDS011;41279;43.546;16.426;2022-11-18T11:02:59;8.18;;;3.13;;
55409;SDS011;41279;43.546;16.426;2022-11-18T11:05:25;7.13;;;2.88;;
55409;SDS011;41279;43.546;16.426;2022-11-18T11:08:01;9.80;;;3.10;;
55409;SDS011;41279;43.546;16.426;2022-11-18T11:10:28;9.40;;;2.90;;
55409;SDS011;41279;43.546;16.426;2022-11-18T11:13:15;9.95;;;2.67;;
55409;SDS011;41279;43.546;16.426;2022-11-18T11:15:41;7.47;;;2.50;;
55409;SDS011;41279;43.546;16.426;2022-11-18T11:21:13;7.90;;;2.92;;
55409;SDS011;41279;43.546;16.426;2022-11-18T11:23:40;8.25;;;2.53;;
55409;SDS011;41279;43.546;16.426;2022-11-18T11:28:52;8.77;;;3.25;;
55409;SDS011;41279;43.546;16.426;2022-11-18T11:31:33;8.05;;;2.50;;
55409;SDS011;41279;43.546;16.426;2022-11-18T11:51:08;8.23;;;2.63;;
55409;SDS011;41279;43.546;16.426;2022-11-18T12:06:58;13.15;;;3.25;;
55409;SDS011;41279;43.546;16.426;2022-11-18T12:09:26;16.42;;;3.70;;
55409;SDS011;41279;43.546;16.426;2022-11-18T12:14:50;8.05;;;2.13;;
55409;SDS011;41279;43.546;16.426;2022-11-18T12:17:39;5.55;;;2.25;;
55409;SDS011;41279;43.546;16.426;2022-11-18T12:28:21;10.82;;;3.05;;
55409;SDS011;41279;43.546;16.426;2022-11-18T12:33:55;13.40;;;2.63;;
55409;SDS011;41279;43.546;16.426;2022-11-18T12:38:51;7.68;;;2.25;;
55409;SDS011;41279;43.546;16.426;2022-11-18T12:41:50;7.38;;;2.40;;
55409;SDS011;41279;43.546;16.426;2022-11-18T12:44:33;9.55;;;3.30;;
55409;SDS011;41279;43.546;16.426;2022-11-18T12:47:00;7.90;;;2.95;;
55409;SDS011;41279;43.546;16.426;2022-11-18T12:51:52;10.32;;;4.20;;
55409;SDS011;41279;43.546;16.426;2022-11-18T12:57:09;23.65;;;4.53;;
55409;SDS011;41279;43.546;16.426;2022-11-18T12:59:41;10.43;;;3.58;;
55409;SDS011;41279;43.546;16.426;2022-11-18T13:04:35;13.98;;;4.30;;
55409;SDS011;41279;43.546;16.426;2022-11-18T13:07:01;15.13;;;5.28;;
55409;SDS011;41279;43.546;16.426;2022-11-18T13:09:56;10.75;;;3.00;;
55409;SDS011;41279;43.546;16.426;2022-11-18T13:12:24;9.30;;;3.22;;
55409;SDS011;41279;43.546;16.426;2022-11-18T13:14:51;9.77;;;3.53;;
55409;SDS011;41279;43.546;16.426;2022-11-18T13:17:41;12.30;;;3.97;;
55409;SDS011;41279;43.546;16.426;2022-11-18T13:20:26;14.25;;;4.97;;
55409;SDS011;41279;43.546;16.426;2022-11-18T13:23:14;11.70;;;5.18;;
55409;SDS011;41279;43.546;16.426;2022-11-18T13:34:15;13.63;;;5.70;;
55409;SDS011;41279;43.546;16.426;2022-11-18T13:36:44;9.85;;;4.32;;
55409;SDS011;41279;43.546;16.426;2022-11-18T13:41:56;12.27;;;4.25;;
55409;SDS011;41279;43.546;16.426;2022-11-18T13:44:37;16.95;;;4.28;;
55409;SDS011;41279;43.546;16.426;2022-11-18T13:55:08;13.05;;;4.53;;
55409;SDS011;41279;43.546;16.426;2022-11-18T13:57:40;10.32;;;3.35;;
55409;SDS011;41279;43.546;16.426;2022-11-18T14:00:19;8.82;;;2.60;;
55409;SDS011;41279;43.546;16.426;2022-11-18T14:05:23;10.25;;;2.70;;
55409;SDS011;41279;43.546;16.426;2022-11-18T14:07:56;5.93;;;2.40;;
55409;SDS011;41279;43.546;16.426;2022-11-18T14:10:29;4.45;;;2.08;;
55409;SDS011;41279;43.546;16.426;2022-11-18T14:13:00;10.48;;;3.00;;
55409;SDS011;41279;43.546;16.426;2022-11-18T14:17:55;6.55;;;2.28;;
55409;SDS011;41279;43.546;16.426;2022-11-18T14:20:23;9.68;;;2.70;;
55409;SDS011;41279;43.546;16.426;2022-11-18T14:22:52;8.80;;;2.30;;
55409;SDS011;41279;43.546;16.426;2022-11-18T14:27:51;9.60;;;2.70;;
55409;SDS011;41279;43.546;16.426;2022-11-18T14:30:31;7.60;;;2.03;;
55409;SDS011;41279;43.546;16.426;2022-11-18T14:35:29;5.90;;;1.98;;
55409;SDS011;41279;43.546;16.426;2022-11-18T14:37:55;11.15;;;2.25;;
55409;SDS011;41279;43.546;16.426;2022-11-18T14:40:20;8.82;;;2.25;;
55409;SDS011;41279;43.546;16.426;2022-11-18T14:42:45;7.28;;;2.30;;
55409;SDS011;41279;43.546;16.426;2022-11-18T14:45:11;9.43;;;2.42;;
55409;SDS011;41279;43.546;16.426;2022-11-18T14:47:36;7.45;;;2.38;;
55409;SDS011;41279;43.546;16.426;2022-11-18T14:50:04;9.00;;;2.95;;
55409;SDS011;41279;43.546;16.426;2022-11-18T14:52:36;6.95;;;2.15;;
55409;SDS011;41279;43.546;16.426;2022-11-18T14:55:01;8.70;;;2.22;;
55409;SDS011;41279;43.546;16.426;2022-11-18T14:57:27;8.15;;;2.15;;
55409;SDS011;41279;43.546;16.426;2022-11-18T14:59:52;6.13;;;1.88;;
55409;SDS011;41279;43.546;16.426;2022-11-18T15:02:18;9.82;;;1.92;;
55409;SDS011;41279;43.546;16.426;2022-11-18T15:04:43;10.27;;;2.38;;
55409;SDS011;41279;43.546;16.426;2022-11-18T15:07:10;5.80;;;2.42;;
55409;SDS011;41279;43.546;16.426;2022-11-18T15:09:38;11.90;;;2.30;;
55409;SDS011;41279;43.546;16.426;2022-11-18T15:12:04;13.48;;;2.22;;
55409;SDS011;41279;43.546;16.426;2022-11-18T15:14:29;11.23;;;3.05;;
55409;SDS011;41279;43.546;16.426;2022-11-18T15:16:55;7.10;;;2.83;;
55409;SDS011;41279;43.546;16.426;2022-11-18T15:19:20;7.53;;;2.33;;
55409;SDS011;41279;43.546;16.426;2022-11-18T15:21:46;9.55;;;2.50;;
55409;SDS011;41279;43.546;16.426;2022-11-18T15:24:11;7.68;;;2.25;;
55409;SDS011;41279;43.546;16.426;2022-11-18T15:26:46;6.60;;;2.10;;
55409;SDS011;41279;43.546;16.426;2022-11-18T15:29:16;10.25;;;2.80;;
55409;SDS011;41279;43.546;16.426;2022-11-18T15:31:43;8.05;;;2.40;;
55409;SDS011;41279;43.546;16.426;2022-11-18T15:34:09;8.70;;;2.85;;
55409;SDS011;41279;43.546;16.426;2022-11-18T15:36:34;9.50;;;2.92;;
55409;SDS011;41279;43.546;16.426;2022-11-18T15:39:00;8.07;;;2.95;;
55409;SDS011;41279;43.546;16.426;2022-11-18T15:41:26;7.82;;;2.92;;
55409;SDS011;41279;43.546;16.426;2022-11-18T15:43:53;7.10;;;2.72;;
55409;SDS011;41279;43.546;16.426;2022-11-18T15:46:20;6.97;;;3.08;;
55409;SDS011;41279;43.546;16.426;2022-11-18T15:48:47;8.43;;;3.83;;
55409;SDS011;41279;43.546;16.426;2022-11-18T15:51:15;9.68;;;3.88;;
55409;SDS011;41279;43.546;16.426;2022-11-18T15:53:41;12.13;;;4.22;;
55409;SDS011;41279;43.546;16.426;2022-11-18T15:56:15;10.25;;;3.58;;
55409;SDS011;41279;43.546;16.426;2022-11-18T15:58:53;12.95;;;2.92;;
55409;SDS011;41279;43.546;16.426;2022-11-18T16:01:20;7.07;;;3.10;;
55409;SDS011;41279;43.546;16.426;2022-11-18T16:03:46;10.93;;;3.30;;
55409;SDS011;41279;43.546;16.426;2022-11-18T16:06:12;7.38;;;3.35;;
55409;SDS011;41279;43.546;16.426;2022-11-18T16:08:37;13.13;;;3.78;;
55409;SDS011;41279;43.546;16.426;2022-11-18T16:11:02;11.25;;;5.32;;
55409;SDS011;41279;43.546;16.426;2022-11-18T16:13:46;11.65;;;5.20;;
55409;SDS011;41279;43.546;16.426;2022-11-18T16:16:30;13.57;;;4.60;;
55409;SDS011;41279;43.546;16.426;2022-11-18T16:18:57;12.55;;;4.85;;
55409;SDS011;41279;43.546;16.426;2022-11-18T16:21:25;13.75;;;5.50;;
55409;SDS011;41279;43.546;16.426;2022-11-18T16:23:55;11.10;;;4.95;;
55409;SDS011;41279;43.546;16.426;2022-11-18T16:26:22;15.27;;;5.38;;
55409;SDS011;41279;43.546;16.426;2022-11-18T16:28:48;15.68;;;5.75;;
55409;SDS011;41279;43.546;16.426;2022-11-18T16:31:13;12.27;;;5.40;;
55409;SDS011;41279;43.546;16.426;2022-11-18T16:33:57;12.80;;;5.68;;
55409;SDS011;41279;43.546;16.426;2022-11-18T16:36:26;14.13;;;5.90;;
55409;SDS011;41279;43.546;16.426;2022-11-18T16:38:52;14.30;;;6.65;;
55409;SDS011;41279;43.546;16.426;2022-11-18T16:41:17;15.85;;;7.07;;
55409;SDS011;41279;43.546;16.426;2022-11-18T16:43:55;14.60;;;6.15;;
55409;SDS011;41279;43.546;16.426;2022-11-18T16:46:22;14.15;;;6.38;;
55409;SDS011;41279;43.546;16.426;2022-11-18T16:48:48;16.27;;;6.28;;
55409;SDS011;41279;43.546;16.426;2022-11-18T16:53:56;18.10;;;6.85;;
55409;SDS011;41279;43.546;16.426;2022-11-18T16:56:23;22.70;;;10.52;;
55409;SDS011;41279;43.546;16.426;2022-11-18T16:59:01;19.42;;;7.68;;
55409;SDS011;41279;43.546;16.426;2022-11-18T17:01:30;17.13;;;6.95;;
55409;SDS011;41279;43.546;16.426;2022-11-18T17:03:56;15.88;;;6.93;;
55409;SDS011;41279;43.546;16.426;2022-11-18T17:06:24;22.85;;;9.52;;
55409;SDS011;41279;43.546;16.426;2022-11-18T17:08:49;14.63;;;7.35;;
55409;SDS011;41279;43.546;16.426;2022-11-18T17:11:15;16.27;;;6.47;;
55409;SDS011;41279;43.546;16.426;2022-11-18T17:13:41;13.80;;;6.05;;
55409;SDS011;41279;43.546;16.426;2022-11-18T17:16:07;17.35;;;6.63;;
55409;SDS011;41279;43.546;16.426;2022-11-18T17:18:35;14.27;;;5.88;;
55409;SDS011;41279;43.546;16.426;2022-11-18T17:21:02;15.98;;;6.18;;
55409;SDS011;41279;43.546;16.426;2022-11-18T17:23:31;16.67;;;7.03;;
55409;SDS011;41279;43.546;16.426;2022-11-18T17:25:57;20.35;;;8.65;;